Time;durP1;ratioP1;P1;durP2;ratioP2;P2;SDS_P1;SDS_P2;PMS_P1;PMS_P2;Temp;Humidity;BMP_temperature;BMP_pressure;BME280_temperature;BME280_humidity;BME280_pressure;Samples;Min_cycle;Max_cycle;Signal;HPM_P1;HPM_P2
2023/09/11 00:00:29;;;;;;;;;;;21.80;99.90;;;;;;4999446;28;20260;-61
2023/09/11 00:02:54;;;;;;;;;;;21.80;99.90;;;;;;4992337;28;19917;-62
2023/09/11 00:05:20;;;;;;;;;;;21.80;99.90;;;;;;4992408;28;19923;-62
2023/09/11 00:07:45;;;;;;;;;;;21.80;99.90;;;;;;4992602;28;19918;-62
2023/09/11 00:10:11;;;;;;;;;;;21.80;99.90;;;;;;4991968;28;20359;-62
2023/09/11 00:12:37;;;;;;;;;;;21.80;99.90;;;;;;4995274;28;20012;-62
2023/09/11 00:15:02;;;;;;;;;;;21.70;99.90;;;;;;5012147;28;19917;-61
2023/09/11 00:17:28;;;;;;;;;;;21.70;99.90;;;;;;4992869;28;19917;-60
2023/09/11 00:19:54;;;;;;;;;;;21.70;99.90;;;;;;4991987;28;19921;-61
2023/09/11 00:22:20;;;;;;;;;;;21.80;99.90;;;;;;4992338;28;19917;-60
2023/09/11 00:24:45;;;;;;;;;;;21.70;99.90;;;;;;4992543;28;19926;-59
2023/09/11 00:27:11;;;;;;;;;;;21.60;99.90;;;;;;4992575;28;19925;-60
2023/09/11 00:29:36;;;;;;;;;;;21.60;99.90;;;;;;4993700;28;19917;-59
2023/09/11 00:32:02;;;;;;;;;;;21.60;99.90;;;;;;4996309;28;19917;-60
2023/09/11 00:34:29;;;;;;;;;;;21.60;99.90;;;;;;4994532;28;20384;-59
2023/09/11 00:36:55;;;;;;;;;;;21.50;99.90;;;;;;4996408;28;20349;-60
2023/09/11 00:39:21;;;;;;;;;;;21.50;99.90;;;;;;4996192;28;19968;-60
2023/09/11 00:41:46;;;;;;;;;;;21.60;99.90;;;;;;4996383;28;19918;-60
2023/09/11 00:44:12;;;;;;;;;;;21.50;99.90;;;;;;4995911;28;20269;-59
2023/09/11 00:46:38;;;;;;;;;;;21.50;99.90;;;;;;4995925;28;19925;-60
2023/09/11 00:49:04;;;;;;;;;;;21.40;99.90;;;;;;4995985;28;20431;-60
2023/09/11 00:51:29;;;;;;;;;;;21.50;99.90;;;;;;4996195;28;19925;-60
2023/09/11 00:53:55;;;;;;;;;;;21.50;99.90;;;;;;4996360;28;20009;-60
2023/09/11 00:56:21;;;;;;;;;;;21.50;99.90;;;;;;4995787;28;20396;-60
2023/09/11 00:58:48;;;;;;;;;;;21.50;99.90;;;;;;4995749;28;19925;-60
2023/09/11 01:01:13;;;;;;;;;;;21.40;99.90;;;;;;4995770;28;19918;-60
2023/09/11 01:03:39;;;;;;;;;;;21.50;99.90;;;;;;4995559;28;19976;-60
2023/09/11 01:06:05;;;;;;;;;;;21.40;99.90;;;;;;4995505;28;19917;-59
2023/09/11 01:08:31;;;;;;;;;;;21.50;99.90;;;;;;4995686;28;19918;-59
2023/09/11 01:10:57;;;;;;;;;;;21.40;99.90;;;;;;4995511;28;19922;-59
2023/09/11 01:13:23;;;;;;;;;;;21.40;99.90;;;;;;4994019;28;19917;-59
2023/09/11 01:16:07;;;;;;;;;;;21.40;99.90;;;;;;5010400;28;19967;-60
2023/09/11 01:18:32;;;;;;;;;;;21.40;99.90;;;;;;5014983;28;20406;-59
2023/09/11 01:20:58;;;;;;;;;;;21.40;99.90;;;;;;5014666;28;19964;-59
2023/09/11 01:23:32;;;;;;;;;;;21.40;99.90;;;;;;5015022;28;19996;-59
2023/09/11 01:26:03;;;;;;;;;;;21.40;99.90;;;;;;5014860;28;20012;-60
2023/09/11 01:28:36;;;;;;;;;;;21.30;99.90;;;;;;5014974;28;20029;-59
2023/09/11 01:31:02;;;;;;;;;;;21.30;99.90;;;;;;5015064;28;20633;-60
2023/09/11 01:33:27;;;;;;;;;;;21.30;99.90;;;;;;5015028;28;20008;-60
2023/09/11 01:35:53;;;;;;;;;;;21.40;99.90;;;;;;5014670;28;19971;-59
2023/09/11 01:38:19;;;;;;;;;;;21.30;99.90;;;;;;5014495;28;20004;-59
2023/09/11 01:40:46;;;;;;;;;;;21.30;99.90;;;;;;4995862;28;19921;-60
2023/09/11 01:43:13;;;;;;;;;;;21.30;99.90;;;;;;5014505;28;21989;-60
2023/09/11 01:45:40;;;;;;;;;;;21.20;99.90;;;;;;5005714;28;19917;-60
2023/09/11 01:48:07;;;;;;;;;;;21.30;99.90;;;;;;4994920;28;19918;-60
2023/09/11 01:50:33;;;;;;;;;;;21.30;99.90;;;;;;4994405;28;19918;-60
2023/09/11 01:52:59;;;;;;;;;;;21.30;99.90;;;;;;4994773;28;19925;-60
2023/09/11 01:55:24;;;;;;;;;;;21.30;99.90;;;;;;4994719;28;19921;-59
2023/09/11 01:57:50;;;;;;;;;;;21.30;99.90;;;;;;4994040;28;19922;-59
2023/09/11 02:00:27;;;;;;;;;;;21.30;99.90;;;;;;4994223;28;19961;-63
2023/09/11 02:02:55;;;;;;;;;;;21.30;99.90;;;;;;4960223;28;20651;-60
2023/09/11 02:05:21;;;;;;;;;;;21.20;99.90;;;;;;4993225;28;19922;-59
2023/09/11 02:07:46;;;;;;;;;;;21.30;99.90;;;;;;4994569;28;19924;-59
2023/09/11 02:10:12;;;;;;;;;;;21.20;99.90;;;;;;4993989;28;20360;-60
2023/09/11 02:12:37;;;;;;;;;;;21.20;99.90;;;;;;5000741;28;20291;-60
2023/09/11 02:15:04;;;;;;;;;;;21.30;99.90;;;;;;5006731;28;19991;-60
2023/09/11 02:17:29;;;;;;;;;;;21.20;99.90;;;;;;4976466;28;19921;-60
2023/09/11 02:19:55;;;;;;;;;;;21.20;99.90;;;;;;4994092;28;19926;-60
2023/09/11 02:22:20;;;;;;;;;;;21.20;99.90;;;;;;4993957;28;19917;-60
2023/09/11 02:24:46;;;;;;;;;;;21.20;99.90;;;;;;4994201;28;20368;-60
2023/09/11 02:27:11;;;;;;;;;;;21.20;99.90;;;;;;4994186;28;20422;-60
2023/09/11 02:29:37;;;;;;;;;;;21.10;99.90;;;;;;4994282;28;20253;-59
2023/09/11 02:32:03;;;;;;;;;;;21.10;99.90;;;;;;4994312;28;19917;-59
2023/09/11 02:34:29;;;;;;;;;;;21.10;99.90;;;;;;4993663;28;19925;-59
2023/09/11 02:36:54;;;;;;;;;;;21.10;99.90;;;;;;4993882;28;19917;-59
2023/09/11 02:39:20;;;;;;;;;;;21.10;99.90;;;;;;4993481;28;19922;-59
2023/09/11 02:41:45;;;;;;;;;;;21.10;99.90;;;;;;4993880;28;20409;-60
2023/09/11 02:44:11;;;;;;;;;;;21.10;99.90;;;;;;4994138;28;20423;-60
2023/09/11 02:46:36;;;;;;;;;;;21.10;99.90;;;;;;4993891;28;20293;-60
2023/09/11 02:49:02;;;;;;;;;;;21.00;99.90;;;;;;4993647;28;19961;-62
2023/09/11 02:51:28;;;;;;;;;;;21.00;99.90;;;;;;4997616;28;19917;-60
2023/09/11 02:53:54;;;;;;;;;;;21.00;99.90;;;;;;5013549;28;20280;-59
2023/09/11 02:56:20;;;;;;;;;;;20.90;99.90;;;;;;4997864;28;19924;-60
2023/09/11 02:58:45;;;;;;;;;;;21.00;99.90;;;;;;5002769;28;19919;-59
2023/09/11 03:01:11;;;;;;;;;;;21.00;99.90;;;;;;5013274;28;19917;-59
2023/09/11 03:03:36;;;;;;;;;;;20.90;99.90;;;;;;5013211;28;19917;-59
2023/09/11 03:06:03;;;;;;;;;;;20.90;99.90;;;;;;5013028;28;20367;-60
2023/09/11 03:08:29;;;;;;;;;;;20.90;99.90;;;;;;4995718;28;19945;-60
2023/09/11 03:11:02;;;;;;;;;;;20.90;99.90;;;;;;4993479;28;19918;-60
2023/09/11 03:13:27;;;;;;;;;;;20.90;99.90;;;;;;4993325;28;19985;-60
2023/09/11 03:15:53;;;;;;;;;;;20.90;99.90;;;;;;4993459;28;19988;-60
2023/09/11 03:18:20;;;;;;;;;;;20.90;99.90;;;;;;4993404;28;19955;-60
2023/09/11 03:20:45;;;;;;;;;;;20.90;99.90;;;;;;4992978;28;19921;-60
2023/09/11 03:23:11;;;;;;;;;;;20.80;99.90;;;;;;4993176;28;19925;-60
2023/09/11 03:25:37;;;;;;;;;;;20.80;99.90;;;;;;4992888;28;20288;-59
2023/09/11 03:28:03;;;;;;;;;;;20.80;99.90;;;;;;4993201;28;19925;-59
2023/09/11 03:30:29;;;;;;;;;;;20.80;99.90;;;;;;4992574;28;19921;-59
2023/09/11 03:32:54;;;;;;;;;;;20.80;99.90;;;;;;4992912;28;20056;-59
2023/09/11 03:35:20;;;;;;;;;;;20.80;99.90;;;;;;4992888;28;19918;-60
2023/09/11 03:37:45;;;;;;;;;;;20.80;99.90;;;;;;4975451;28;20396;-60
2023/09/11 03:40:13;;;;;;;;;;;20.80;99.90;;;;;;4995594;28;19971;-57
2023/09/11 03:42:39;;;;;;;;;;;20.70;99.90;;;;;;4994062;28;20433;-60
2023/09/11 03:45:08;;;;;;;;;;;20.80;99.90;;;;;;5001320;28;20032;-59
2023/09/11 03:47:34;;;;;;;;;;;20.70;99.90;;;;;;4992392;28;19962;-61
2023/09/11 03:50:04;;;;;;;;;;;20.80;99.90;;;;;;5001002;28;20395;-61
2023/09/11 03:52:29;;;;;;;;;;;20.70;99.90;;;;;;5012303;28;20299;-61
2023/09/11 03:54:55;;;;;;;;;;;20.70;99.90;;;;;;5012368;28;19917;-62
2023/09/11 03:57:20;;;;;;;;;;;20.70;99.90;;;;;;5006752;28;19922;-62
2023/09/11 03:59:46;;;;;;;;;;;20.70;99.90;;;;;;5007100;28;19972;-60
2023/09/11 04:02:11;;;;;;;;;;;20.70;99.90;;;;;;5002137;28;20334;-60
2023/09/11 04:04:38;;;;;;;;;;;20.80;99.90;;;;;;4996011;28;20360;-59
2023/09/11 04:07:03;;;;;;;;;;;20.70;99.90;;;;;;5007515;28;19918;-59
2023/09/11 04:09:30;;;;;;;;;;;20.70;99.90;;;;;;4997072;28;19968;-59
2023/09/11 04:11:56;;;;;;;;;;;20.60;99.90;;;;;;4996741;28;19917;-59
2023/09/11 04:14:22;;;;;;;;;;;20.60;99.90;;;;;;4996291;28;19940;-61
2023/09/11 04:16:47;;;;;;;;;;;20.60;99.90;;;;;;5002618;28;19917;-61
2023/09/11 04:19:13;;;;;;;;;;;20.60;99.90;;;;;;5008534;28;19921;-61
2023/09/11 04:21:38;;;;;;;;;;;20.60;99.90;;;;;;5012387;28;19936;-61
2023/09/11 04:24:06;;;;;;;;;;;20.70;99.90;;;;;;5006611;28;19918;-61
2023/09/11 04:26:32;;;;;;;;;;;20.70;99.90;;;;;;5012334;28;19971;-58
2023/09/11 04:28:58;;;;;;;;;;;20.60;99.90;;;;;;4984557;28;19921;-59
2023/09/11 04:31:23;;;;;;;;;;;20.60;99.90;;;;;;5015390;28;19922;-59
2023/09/11 04:33:49;;;;;;;;;;;20.60;99.90;;;;;;5016066;28;19971;-59
2023/09/11 04:36:14;;;;;;;;;;;20.60;99.90;;;;;;5015843;28;20318;-59
2023/09/11 04:38:40;;;;;;;;;;;20.70;99.90;;;;;;5012090;28;20393;-61
2023/09/11 04:41:05;;;;;;;;;;;20.60;99.90;;;;;;5004852;28;19925;-61
2023/09/11 04:43:31;;;;;;;;;;;20.60;99.90;;;;;;5015615;28;19956;-61
2023/09/11 04:45:56;;;;;;;;;;;20.60;99.90;;;;;;5007804;28;19925;-61
2023/09/11 04:48:22;;;;;;;;;;;20.60;99.90;;;;;;4995836;28;19925;-62
2023/09/11 04:50:47;;;;;;;;;;;20.60;99.90;;;;;;4995169;28;19918;-61
2023/09/11 04:53:13;;;;;;;;;;;20.60;99.90;;;;;;4995905;28;20372;-61
2023/09/11 04:55:38;;;;;;;;;;;20.60;99.90;;;;;;4977736;28;19926;-61
2023/09/11 04:58:04;;;;;;;;;;;20.60;99.90;;;;;;4995307;28;19918;-61
2023/09/11 05:00:30;;;;;;;;;;;20.50;99.90;;;;;;4995020;28;19928;-60
2023/09/11 05:02:55;;;;;;;;;;;20.50;99.90;;;;;;5001768;28;19924;-61
2023/09/11 05:05:21;;;;;;;;;;;20.50;99.90;;;;;;4995342;28;20008;-61
2023/09/11 05:07:46;;;;;;;;;;;20.50;99.90;;;;;;4995080;28;19922;-61
2023/09/11 05:10:14;;;;;;;;;;;20.50;99.90;;;;;;4995185;28;19918;-61
2023/09/11 05:12:40;;;;;;;;;;;20.50;99.90;;;;;;4995467;28;20269;-61
2023/09/11 05:15:06;;;;;;;;;;;20.50;99.90;;;;;;4995003;28;19924;-61
2023/09/11 05:17:31;;;;;;;;;;;20.50;99.90;;;;;;4995367;28;19917;-61
2023/09/11 05:19:57;;;;;;;;;;;20.50;99.90;;;;;;4995403;28;20328;-61
2023/09/11 05:22:23;;;;;;;;;;;20.60;99.90;;;;;;4995226;28;20685;-60
2023/09/11 05:24:48;;;;;;;;;;;20.60;99.90;;;;;;4995208;28;19921;-60
2023/09/11 05:27:14;;;;;;;;;;;20.70;99.90;;;;;;4999051;28;19923;-60
2023/09/11 05:29:39;;;;;;;;;;;20.60;99.90;;;;;;5010935;28;19922;-59
2023/09/11 05:32:05;;;;;;;;;;;20.60;99.90;;;;;;5010464;28;19964;-59
2023/09/11 05:34:30;;;;;;;;;;;20.70;99.90;;;;;;4997262;28;19924;-59
2023/09/11 05:36:56;;;;;;;;;;;20.70;99.90;;;;;;4983247;28;19917;-60
2023/09/11 05:39:21;;;;;;;;;;;20.70;99.90;;;;;;5014350;28;19917;-61
2023/09/11 05:41:47;;;;;;;;;;;20.80;99.90;;;;;;4993417;28;19971;-60
2023/09/11 05:44:13;;;;;;;;;;;20.80;99.90;;;;;;5009110;28;19925;-59
2023/09/11 05:46:38;;;;;;;;;;;20.80;99.90;;;;;;5010914;28;19925;-59
2023/09/11 05:49:04;;;;;;;;;;;20.80;99.90;;;;;;5010009;28;19917;-61
2023/09/11 05:51:30;;;;;;;;;;;20.90;99.90;;;;;;5000356;28;19928;-61
2023/09/11 05:53:55;;;;;;;;;;;21.00;99.90;;;;;;5014356;28;19925;-61
2023/09/11 05:56:21;;;;;;;;;;;21.00;99.90;;;;;;5014218;28;19928;-61
2023/09/11 05:58:46;;;;;;;;;;;21.10;99.90;;;;;;5013255;28;19924;-61
2023/09/11 06:01:13;;;;;;;;;;;21.20;99.90;;;;;;5013958;28;19917;-62
2023/09/11 06:03:39;;;;;;;;;;;21.30;99.90;;;;;;5009888;28;19936;-62
2023/09/11 06:06:05;;;;;;;;;;;21.30;99.90;;;;;;5005616;28;19917;-63
2023/09/11 06:08:32;;;;;;;;;;;21.50;99.90;;;;;;4996943;28;20018;-61
2023/09/11 06:10:59;;;;;;;;;;;21.50;99.90;;;;;;4993932;28;19926;-62
2023/09/11 06:13:25;;;;;;;;;;;21.60;99.90;;;;;;4976932;28;19968;-61
2023/09/11 06:15:51;;;;;;;;;;;21.70;99.90;;;;;;4993956;28;19918;-61
2023/09/11 06:18:16;;;;;;;;;;;21.80;99.90;;;;;;4994386;28;19917;-61
2023/09/11 06:20:42;;;;;;;;;;;21.90;99.90;;;;;;4993772;28;19922;-61
2023/09/11 06:23:10;;;;;;;;;;;21.90;99.90;;;;;;4977161;28;20008;-61
2023/09/11 06:25:36;;;;;;;;;;;21.90;99.90;;;;;;4976057;28;19917;-61
2023/09/11 06:28:03;;;;;;;;;;;22.00;99.90;;;;;;4993430;28;20438;-60
2023/09/11 06:30:32;;;;;;;;;;;22.00;99.90;;;;;;4993519;28;19917;-61
2023/09/11 06:32:58;;;;;;;;;;;22.10;99.90;;;;;;4994225;28;19918;-61
2023/09/11 06:35:23;;;;;;;;;;;22.10;99.90;;;;;;4976487;28;19968;-61
2023/09/11 06:37:49;;;;;;;;;;;22.20;99.90;;;;;;4993933;28;20375;-63
2023/09/11 06:40:15;;;;;;;;;;;22.30;99.90;;;;;;4993739;28;20265;-61
2023/09/11 06:42:40;;;;;;;;;;;22.60;99.90;;;;;;4993575;28;19983;-62
2023/09/11 06:45:06;;;;;;;;;;;22.70;99.90;;;;;;4993698;28;19917;-62
2023/09/11 06:47:31;;;;;;;;;;;22.80;99.90;;;;;;4993775;28;19929;-62
2023/09/11 06:49:57;;;;;;;;;;;22.90;99.90;;;;;;4993886;28;19924;-61
2023/09/11 06:52:23;;;;;;;;;;;23.10;99.90;;;;;;4993866;28;20395;-62
2023/09/11 06:54:49;;;;;;;;;;;23.30;99.90;;;;;;4993633;28;19926;-61
2023/09/11 06:57:17;;;;;;;;;;;23.50;99.90;;;;;;4992577;28;19917;-59
2023/09/11 06:59:42;;;;;;;;;;;23.60;99.90;;;;;;4988550;28;19922;-61
2023/09/11 07:02:08;;;;;;;;;;;23.70;99.90;;;;;;4985195;28;19921;-61
2023/09/11 07:04:34;;;;;;;;;;;23.80;99.90;;;;;;4993698;28;19965;-62
2023/09/11 07:06:59;;;;;;;;;;;23.90;99.90;;;;;;4993460;28;19921;-62
2023/09/11 07:09:25;;;;;;;;;;;24.00;99.90;;;;;;4993593;28;19972;-61
2023/09/11 07:11:51;;;;;;;;;;;24.00;99.90;;;;;;4992930;28;19980;-62
2023/09/11 07:14:20;;;;;;;;;;;24.10;99.90;;;;;;4975723;28;19917;-61
2023/09/11 07:16:46;;;;;;;;;;;24.40;99.90;;;;;;4993276;28;20388;-61
2023/09/11 07:19:12;;;;;;;;;;;24.50;99.90;;;;;;4993376;28;20017;-61
2023/09/11 07:21:37;;;;;;;;;;;24.70;99.90;;;;;;4993100;28;19921;-61
2023/09/11 07:24:03;;;;;;;;;;;24.80;99.90;;;;;;4992934;28;19964;-61
2023/09/11 07:26:28;;;;;;;;;;;25.10;99.90;;;;;;4993113;28;19917;-59
2023/09/11 07:28:58;;;;;;;;;;;25.20;99.90;;;;;;4993131;28;19917;-59
2023/09/11 07:31:24;;;;;;;;;;;25.50;99.90;;;;;;4993230;28;19976;-60
2023/09/11 07:33:50;;;;;;;;;;;25.50;99.90;;;;;;4978922;28;19925;-59
2023/09/11 07:36:16;;;;;;;;;;;25.60;99.90;;;;;;5012804;28;19917;-60
2023/09/11 07:38:44;;;;;;;;;;;25.50;99.90;;;;;;5011861;28;19964;-60
2023/09/11 07:41:10;;;;;;;;;;;25.60;99.90;;;;;;4994799;28;20371;-60
2023/09/11 07:43:39;;;;;;;;;;;25.80;99.90;;;;;;5012345;28;19917;-59
2023/09/11 07:46:04;;;;;;;;;;;26.00;99.90;;;;;;5007739;28;19964;-60
2023/09/11 07:48:30;;;;;;;;;;;26.20;99.90;;;;;;5012414;28;19953;-60
2023/09/11 07:50:56;;;;;;;;;;;26.40;99.90;;;;;;4978970;28;19918;-59
2023/09/11 07:53:22;;;;;;;;;;;26.40;99.90;;;;;;4992625;28;19917;-60
2023/09/11 07:55:48;;;;;;;;;;;26.60;99.90;;;;;;4994658;28;19972;-60
2023/09/11 07:58:14;;;;;;;;;;;26.80;99.90;;;;;;5010922;28;19964;-60
2023/09/11 08:00:39;;;;;;;;;;;26.90;99.90;;;;;;5012472;28;19932;-60
2023/09/11 08:03:05;;;;;;;;;;;27.00;99.90;;;;;;5012191;28;20357;-60
2023/09/11 08:05:31;;;;;;;;;;;27.10;99.90;;;;;;5012331;28;20402;-60
2023/09/11 08:08:01;;;;;;;;;;;27.10;99.90;;;;;;4999184;28;19967;-61
2023/09/11 08:10:30;;;;;;;;;;;27.20;99.90;;;;;;4992471;28;19918;-61
2023/09/11 08:12:55;;;;;;;;;;;27.20;99.90;;;;;;4992376;28;20004;-60
2023/09/11 08:15:21;;;;;;;;;;;27.40;99.90;;;;;;4975089;28;20403;-60
2023/09/11 08:17:47;;;;;;;;;;;27.50;99.90;;;;;;4992874;28;19924;-60
2023/09/11 08:20:15;;;;;;;;;;;27.60;99.90;;;;;;4992544;28;19968;-60
2023/09/11 08:22:41;;;;;;;;;;;27.80;99.90;;;;;;4992624;28;19922;-61
2023/09/11 08:25:11;;;;;;;;;;;27.80;99.90;;;;;;4992366;28;20000;-60
2023/09/11 08:27:37;;;;;;;;;;;27.90;99.90;;;;;;4992873;28;20001;-61
2023/09/11 08:30:03;;;;;;;;;;;27.80;99.90;;;;;;4992674;28;20064;-61
2023/09/11 08:32:29;;;;;;;;;;;28.00;99.90;;;;;;4992651;28;19921;-61
2023/09/11 08:34:55;;;;;;;;;;;28.10;99.90;;;;;;4993035;28;20383;-61
2023/09/11 08:37:27;;;;;;;;;;;28.10;99.90;;;;;;4979579;28;19929;-62
2023/09/11 08:39:52;;;;;;;;;;;28.20;99.90;;;;;;4992615;28;19918;-61
2023/09/11 08:42:18;;;;;;;;;;;28.40;99.90;;;;;;4992347;28;19944;-62
2023/09/11 08:44:44;;;;;;;;;;;28.50;99.90;;;;;;4992577;28;19918;-61
2023/09/11 08:47:11;;;;;;;;;;;28.60;99.90;;;;;;4992175;28;19976;-61
2023/09/11 08:49:41;;;;;;;;;;;28.80;99.90;;;;;;4993197;28;19925;-60
2023/09/11 08:52:09;;;;;;;;;;;28.90;99.90;;;;;;4996275;28;19918;-60
2023/09/11 08:54:37;;;;;;;;;;;29.10;99.90;;;;;;4991654;28;19918;-61
2023/09/11 08:57:03;;;;;;;;;;;29.30;99.90;;;;;;4985277;28;19925;-60
2023/09/11 08:59:29;;;;;;;;;;;29.60;99.90;;;;;;4995708;28;19929;-60
2023/09/11 09:01:56;;;;;;;;;;;29.70;99.90;;;;;;4995909;28;19922;-61
2023/09/11 09:04:21;;;;;;;;;;;30.10;99.90;;;;;;4995463;28;19918;-61
2023/09/11 09:06:48;;;;;;;;;;;30.40;99.90;;;;;;4995438;28;19918;-60
2023/09/11 09:09:13;;;;;;;;;;;30.80;99.90;;;;;;4995642;28;20004;-61
2023/09/11 09:11:41;;;;;;;;;;;31.10;99.90;;;;;;4995217;28;20006;-60
2023/09/11 09:14:07;;;;;;;;;;;31.30;99.90;;;;;;4995685;28;19917;-59
2023/09/11 09:16:33;;;;;;;;;;;31.60;99.90;;;;;;4995291;28;20009;-61
2023/09/11 09:18:58;;;;;;;;;;;31.60;99.90;;;;;;4995445;28;20350;-60
2023/09/11 09:21:25;;;;;;;;;;;32.10;99.90;;;;;;4995049;28;19921;-61
2023/09/11 09:23:52;;;;;;;;;;;32.30;99.90;;;;;;4995437;28;20365;-60
2023/09/11 09:26:18;;;;;;;;;;;32.40;99.90;;;;;;4995636;28;20257;-60
2023/09/11 09:28:44;;;;;;;;;;;32.50;99.90;;;;;;4995352;28;19961;-61
2023/09/11 09:31:12;;;;;;;;;;;32.10;99.90;;;;;;4995081;28;20000;-61
2023/09/11 09:33:38;;;;;;;;;;;32.00;99.90;;;;;;4994865;28;20365;-60
2023/09/11 09:36:06;;;;;;;;;;;31.80;99.90;;;;;;4995156;28;20009;-61
2023/09/11 09:38:31;;;;;;;;;;;31.40;99.90;;;;;;4995180;28;19918;-61
2023/09/11 09:40:57;;;;;;;;;;;31.20;99.90;;;;;;4994763;28;19921;-61
2023/09/11 09:43:23;;;;;;;;;;;30.90;99.90;;;;;;4994920;28;20042;-60
2023/09/11 09:45:48;;;;;;;;;;;30.90;99.90;;;;;;4994566;28;20034;-62
2023/09/11 09:48:18;;;;;;;;;;;30.70;99.90;;;;;;4993560;28;19918;-61
2023/09/11 09:50:53;;;;;;;;;;;30.50;99.90;;;;;;4994609;28;20004;-60
2023/09/11 09:53:24;;;;;;;;;;;30.60;99.90;;;;;;4994876;28;20005;-60
2023/09/11 09:55:50;;;;;;;;;;;30.60;99.90;;;;;;4994680;28;19918;-60
2023/09/11 09:58:20;;;;;;;;;;;30.40;99.90;;;;;;4994529;28;20319;-61
2023/09/11 10:00:46;;;;;;;;;;;30.30;99.90;;;;;;4994185;28;19922;-61
2023/09/11 10:03:12;;;;;;;;;;;30.30;99.90;;;;;;4993941;28;19918;-60
2023/09/11 10:05:40;;;;;;;;;;;30.30;99.90;;;;;;4994442;28;19917;-61
2023/09/11 10:08:05;;;;;;;;;;;30.70;99.90;;;;;;4994186;28;19918;-61
2023/09/11 10:10:31;;;;;;;;;;;31.20;99.90;;;;;;4994417;28;19925;-60
2023/09/11 10:13:05;;;;;;;;;;;31.60;99.90;;;;;;4994340;28;19924;-60
2023/09/11 10:15:32;;;;;;;;;;;31.90;99.90;;;;;;4994029;28;19924;-60
2023/09/11 10:17:58;;;;;;;;;;;32.10;99.90;;;;;;4994440;28;19988;-59
2023/09/11 10:20:24;;;;;;;;;;;32.20;99.90;;;;;;4993596;28;19999;-61
2023/09/11 10:22:54;;;;;;;;;;;32.30;99.90;;;;;;4994280;28;20288;-61
2023/09/11 10:25:22;;;;;;;;;;;32.00;99.90;;;;;;4993868;28;19921;-61
2023/09/11 10:27:49;;;;;;;;;;;32.00;99.90;;;;;;4993930;28;19917;-61
2023/09/11 10:30:20;;;;;;;;;;;31.90;99.90;;;;;;4993876;28;19984;-62
2023/09/11 10:32:49;;;;;;;;;;;31.80;99.90;;;;;;4993982;28;19922;-59
2023/09/11 10:35:15;;;;;;;;;;;31.60;99.90;;;;;;4994148;28;19918;-60
2023/09/11 10:37:41;;;;;;;;;;;31.70;99.90;;;;;;4993632;28;19964;-60
2023/09/11 10:40:08;;;;;;;;;;;31.70;99.90;;;;;;4993647;28;19922;-61
2023/09/11 10:42:33;;;;;;;;;;;31.50;99.90;;;;;;4993489;28;20307;-60
2023/09/11 10:44:59;;;;;;;;;;;31.20;99.90;;;;;;4993739;28;19928;-60
2023/09/11 10:47:26;;;;;;;;;;;31.20;99.90;;;;;;4993470;28;20013;-60
2023/09/11 10:49:56;;;;;;;;;;;31.00;99.90;;;;;;4993516;28;20460;-60
2023/09/11 10:52:21;;;;;;;;;;;31.00;99.90;;;;;;4993324;28;20420;-60
2023/09/11 10:54:47;;;;;;;;;;;30.90;99.90;;;;;;4992210;28;20012;-61
2023/09/11 10:57:13;;;;;;;;;;;30.60;99.90;;;;;;4993371;28;19917;-62
2023/09/11 10:59:38;;;;;;;;;;;30.60;99.90;;;;;;4993427;28;20272;-61
2023/09/11 11:02:04;;;;;;;;;;;30.70;99.90;;;;;;4993450;28;19918;-60
2023/09/11 11:04:33;;;;;;;;;;;30.80;99.90;;;;;;4993276;28;19921;-61
2023/09/11 11:07:00;;;;;;;;;;;31.00;99.90;;;;;;4993301;28;19918;-61
2023/09/11 11:09:25;;;;;;;;;;;31.10;99.90;;;;;;4993259;28;19922;-61
2023/09/11 11:11:51;;;;;;;;;;;31.50;99.90;;;;;;4993070;28;19964;-61
2023/09/11 11:14:18;;;;;;;;;;;31.80;99.90;;;;;;4992959;28;19921;-60
2023/09/11 11:16:54;;;;;;;;;;;32.30;99.90;;;;;;4993044;28;20435;-60
2023/09/11 11:19:23;;;;;;;;;;;32.40;99.90;;;;;;4993189;28;19922;-60
2023/09/11 11:21:49;;;;;;;;;;;32.70;99.90;;;;;;4988007;28;19984;-61
2023/09/11 11:24:15;;;;;;;;;;;32.90;99.90;;;;;;4988286;28;19921;-61
2023/09/11 11:26:40;;;;;;;;;;;33.00;99.90;;;;;;5011191;28;19917;-60
2023/09/11 11:29:06;;;;;;;;;;;33.20;99.90;;;;;;5012728;28;20000;-60
2023/09/11 11:31:32;;;;;;;;;;;33.50;99.90;;;;;;5009115;28;19917;-60
2023/09/11 11:33:58;;;;;;;;;;;33.50;99.90;;;;;;5012311;28;19917;-63
2023/09/11 11:36:25;;;;;;;;;;;33.40;99.90;;;;;;5012430;28;19924;-61
2023/09/11 11:38:53;;;;;;;;;;;33.70;99.90;;;;;;5012519;28;19925;-61
2023/09/11 11:41:18;;;;;;;;;;;33.60;99.90;;;;;;5012296;28;19921;-62
2023/09/11 11:43:44;;;;;;;;;;;33.70;99.90;;;;;;5012553;28;19925;-60
2023/09/11 11:46:11;;;;;;;;;;;33.60;99.90;;;;;;5012532;28;19926;-61
2023/09/11 11:48:37;;;;;;;;;;;33.90;99.90;;;;;;5012275;28;19917;-61
2023/09/11 11:51:05;;;;;;;;;;;33.70;99.90;;;;;;5012297;28;19924;-62
2023/09/11 11:53:31;;;;;;;;;;;34.00;99.90;;;;;;5012469;28;20367;-62
2023/09/11 11:56:02;;;;;;;;;;;34.10;99.90;;;;;;5007791;28;19924;-62
2023/09/11 11:58:28;;;;;;;;;;;34.10;99.90;;;;;;5001107;28;20052;-62
2023/09/11 12:00:58;;;;;;;;;;;34.20;99.90;;;;;;4997675;28;20012;-61
2023/09/11 12:03:24;;;;;;;;;;;34.20;99.90;;;;;;5006655;28;19917;-62
2023/09/11 12:05:50;;;;;;;;;;;34.20;99.90;;;;;;5012218;28;19921;-62
2023/09/11 12:08:16;;;;;;;;;;;34.10;99.90;;;;;;4996542;28;19925;-62
2023/09/11 12:10:48;;;;;;;;;;;33.90;99.90;;;;;;4992596;28;20291;-62
2023/09/11 12:13:17;;;;;;;;;;;34.00;99.90;;;;;;4992305;28;19917;-62
2023/09/11 12:15:43;;;;;;;;;;;33.80;99.90;;;;;;4994307;28;20405;-63
2023/09/11 12:18:12;;;;;;;;;;;33.70;99.90;;;;;;5005488;28;19925;-64
2023/09/11 12:20:38;;;;;;;;;;;33.50;99.90;;;;;;5011895;28;19933;-61
2023/09/11 12:23:04;;;;;;;;;;;33.40;99.90;;;;;;5012228;28;20081;-63
2023/09/11 12:25:29;;;;;;;;;;;33.10;99.90;;;;;;5013893;28;19928;-63
2023/09/11 12:27:55;;;;;;;;;;;33.00;99.90;;;;;;5015571;28;19924;-63
2023/09/11 12:30:20;;;;;;;;;;;33.00;99.90;;;;;;5015592;28;19918;-63
2023/09/11 12:32:46;;;;;;;;;;;32.60;99.90;;;;;;5015609;28;19917;-62
2023/09/11 12:35:11;;;;;;;;;;;32.50;99.90;;;;;;5015495;28;19972;-62
2023/09/11 12:37:39;;;;;;;;;;;32.40;99.90;;;;;;5015652;28;19917;-63
2023/09/11 12:40:08;;;;;;;;;;;32.40;99.90;;;;;;4983704;28;19988;-65
2023/09/11 12:42:37;;;;;;;;;;;32.20;99.90;;;;;;5013877;28;19917;-62
2023/09/11 12:45:04;;;;;;;;;;;31.90;99.90;;;;;;5015670;28;19917;-61
2023/09/11 12:47:30;;;;;;;;;;;31.70;99.90;;;;;;4981417;28;20425;-62
2023/09/11 12:49:55;;;;;;;;;;;31.60;99.90;;;;;;5015196;28;19921;-62
2023/09/11 12:52:24;;;;;;;;;;;31.70;99.90;;;;;;5003198;28;19917;-62
2023/09/11 12:54:49;;;;;;;;;;;31.50;99.90;;;;;;5002737;28;19921;-62
2023/09/11 12:57:18;;;;;;;;;;;31.50;99.90;;;;;;5015272;28;19917;-62
2023/09/11 12:59:43;;;;;;;;;;;31.40;99.90;;;;;;5014858;28;19944;-62
2023/09/11 13:02:10;;;;;;;;;;;31.40;99.90;;;;;;5013385;28;20372;-63
2023/09/11 13:04:36;;;;;;;;;;;31.30;99.90;;;;;;5015167;28;20391;-62
2023/09/11 13:07:02;;;;;;;;;;;31.20;99.90;;;;;;5009551;28;20004;-64
2023/09/11 13:09:27;;;;;;;;;;;31.20;99.90;;;;;;4993608;28;19918;-61
2023/09/11 13:11:53;;;;;;;;;;;31.00;99.90;;;;;;4995139;28;20364;-61
2023/09/11 13:14:18;;;;;;;;;;;31.10;99.90;;;;;;4995060;28;19918;-61
2023/09/11 13:16:44;;;;;;;;;;;31.00;99.90;;;;;;4994998;28;19980;-61
2023/09/11 13:19:10;;;;;;;;;;;30.70;99.90;;;;;;4994858;28;19924;-62
2023/09/11 13:21:36;;;;;;;;;;;30.60;99.90;;;;;;5005195;28;19922;-63
2023/09/11 13:24:01;;;;;;;;;;;30.50;99.90;;;;;;5007180;28;19917;-61
2023/09/11 13:26:27;;;;;;;;;;;30.50;99.90;;;;;;5019443;28;19972;-61
2023/09/11 13:28:53;;;;;;;;;;;30.40;99.90;;;;;;5020307;28;19921;-62
2023/09/11 13:31:18;;;;;;;;;;;30.40;99.90;;;;;;4987227;28;19983;-61
2023/09/11 13:33:44;;;;;;;;;;;30.40;99.90;;;;;;5016026;28;20264;-61
2023/09/11 13:36:10;;;;;;;;;;;30.40;99.90;;;;;;5016092;28;20330;-61
2023/09/11 13:38:37;;;;;;;;;;;30.20;99.90;;;;;;5002559;28;19924;-62
2023/09/11 13:41:03;;;;;;;;;;;30.10;99.90;;;;;;5016985;28;19929;-62
2023/09/11 13:43:28;;;;;;;;;;;30.10;99.90;;;;;;5015421;28;19917;-61
2023/09/11 13:45:54;;;;;;;;;;;30.10;99.90;;;;;;5015398;28;19924;-62
2023/09/11 13:48:22;;;;;;;;;;;30.00;99.90;;;;;;5013112;28;19979;-61
2023/09/11 13:50:47;;;;;;;;;;;30.00;99.90;;;;;;5014425;28;19956;-62
2023/09/11 13:53:13;;;;;;;;;;;29.80;99.90;;;;;;4985333;28;19918;-61
2023/09/11 13:55:41;;;;;;;;;;;29.80;99.90;;;;;;5011242;28;19921;-60
2023/09/11 13:58:09;;;;;;;;;;;29.70;99.90;;;;;;5014178;28;19917;-62
2023/09/11 14:00:35;;;;;;;;;;;29.70;99.90;;;;;;5013681;28;20368;-62
2023/09/11 14:03:00;;;;;;;;;;;29.70;99.90;;;;;;5013919;28;19925;-62
2023/09/11 14:05:26;;;;;;;;;;;29.60;99.90;;;;;;5015995;28;19917;-62
2023/09/11 14:07:51;;;;;;;;;;;29.40;99.90;;;;;;5003039;28;20434;-63
2023/09/11 14:10:17;;;;;;;;;;;29.30;99.90;;;;;;4994147;28;19924;-62